Gallup Mills, Vermont
Current Conditions -  °F | °C
As of 8:52 AM on Monday 20 Oct 2014 (Local Time) from KHIE Reporting Station
Clear Clear  
Wind Chill: 37°   Ceiling: Unl
Heat Index: 37°   Visibility: 10mi
Dew Point: 27°   Wind: 0mph
Humidity: 67%   Direction: NA
Pressure: 29.98"   Gusts: NA
Location:  44.5627°N, 71.7775°W
Report Text: KHIE 201252Z AUTO 00000KT 10SM CLR 03/M03 A2998 RMK AO2 SLP162 T00281028
Loading
Personal Weather Stations






























Interactive Weather Map New forecast layout! Learn more

10-Day Weather Forecast

Advertisements
Track Severe Weather on mobile